Englund, Timothy
United StatesManBorn 19661999 – 2019Runner id 34703
Events
52
50 race dates
Best pace
11.541
km/h · 2012
Best finish
1st
of 73 · 2010
Distance raced
5,794
km · splits not double-counted
Pace over time
50 of 52 results · km/h
Pace over time: 50 races from 1999 to 2019, ranging from 3.01 to 12.39 kilometres per hour, where higher is faster. A second, age-graded series is drawn above it; the gap between the two is the age credit.
- Actual pace
- Age-graded pace
2 results are not on this chart. They are counted in every statistic above and listed in full below — backyard ultras carry a lap count instead of a pace, which is the number that means something in that format.
Results
| Date | Event | Distance | Result | Pace km/h | Placing |
|---|---|---|---|---|---|
| 1999-09-25 | 50km | 6:21:59 h | 7.854 | 33/95 | |
| 2000-01-15 | Bridle Trails Winter Running FestivalUnited States | 50km | 5:30:41 h | 9.072 | 14/36 |
| 2000-03-18 | 24h | 82.076 km | 3.420 | 18/32 | |
| 2002-02-16 | 50km | 5:15:00 h | 9.524 | 19/78 | |
| 2002-10-12 | 100mi | 20:16:49 h | 7.936 | 9/34 | |
| 2003-03-22 | 24h | 131.966 km | 5.499 | 12/47 | |
| 2004-01-10 | Bridle Trails Winter Running FestivalUnited States | 50km | 4:36:52 h | 10.836 | 5/24 |
| 2004-04-04 | 50mi | 7:44:01 h | 10.405 | 7/37 | |
| 2004-07-10 | 30mi | 6:19:24 h | 7.635 | 26/196 | |
| 2004-09-18 | Cle Elum Ridge 50kUnited States | 50km | 5:49:06 h | 8.594 | 14/97 |
| 2005-01-08 | Bridle Trails Winter Running FestivalUnited States | 50km | 4:23:23 h | 11.390 | 12/34 |
| 2005-04-17 | 50mi | 7:32:52 h | 10.661 | 7/38 | |
| 2005-06-25 | 100mi | 22:15:59 h | 7.228 | 55/318 | |
| 2005-08-27 | 100mi | 23:18:00 h | 6.907 | 11/70 | |
| 2005-10-01 | Baker Lake 50K Ultra Trail RunUnited States | 50km | 5:16:14 h | 9.487 | 16/101 |
| 2006-01-14 | Bridle Trails Winter Running FestivalUnited States | 50km | 4:53:22 h | 10.226 | 5/18 |
| 2006-04-23 | 50mi | 7:15:59 h | 11.074 | 4/48 | |
| 2006-06-24 | 100mi | 25:36:46 h | 6.283 | 64/210 | |
| 2006-07-22 | 100mi | 20:34:04 h | 7.825 | 17/152 | |
| 2006-08-19 | 100mi | 26:24:38 h | 6.094 | 63/199 | |
| 2006-09-09 | 100mi | 28:33:55 h | 5.634 | 42/151 | |
| 2007-04-28 | Capitol Peak 50 MilerUnited States | 50mi | 9:26:24 h | 8.524 | 17/36 |
| 2007-05-19 | Watershed Preserve 12 Hr Trail RaceUnited States | 12h | 114.231 km | 9.519 | 4/56 |
| 2007-09-08 | 100mi | 25:43:44 h | 6.255 | 1/14 | |
| 2007-12-29 | 48h | 288.000 km | 6.000 | 2/20 | |
| 2008-03-01 | 37mi | 6:37:16 h | 8.993 | 6/22 | |
| 2008-03-15 | 24h | 194.730 km | 8.114 | 1/43 | |
| 2008-04-20 | Spokane River Run 50KUnited States | 50km | 5:23:30 h | 9.274 | 12/44 |
| 2008-05-10 | 50mi | 7:55:38 h | 10.151 | 8/199 | |
| 2008-05-31 | The 20th Century 100K Trail RunUnited States | 100km | 10:11:15 h | 9.816 | 4/15 |
| 2008-06-20 | 100mi | 23:23:00 h | 6.882 | 9/98 | |
| 2008-09-06 | 50km | 4:57:59 h | 10.068 | 3/36 | |
| 2009-03-21 | 24h | 203.984 km | 8.499 | 1/49 | |
| 2009-04-19 | 50km | 4:24:40 h | 11.335 | 6/47 | |
| 2009-08-28 | 166km | 30:31:29 h | 5.438 | 86/1383 | |
| 2010-03-20 | 24h | 194.730 km | 8.114 | 1/73 | |
| 2010-04-18 | Spokane River Run 50KUnited States | 50km | 4:22:21 h | 11.435 | 7/70 |
| 2010-05-30 | Comrades Marathon - Down RunSouth Africa | 89km | 8:28:25 h | 10.503 | 1666/14339 |
| 2011-03-19 | 24h | 204.789 km | 8.533 | 1/67 | |
| 2011-04-17 | Spokane River Run 50KUnited States | 50km | 4:22:43 h | 11.419 | 5/62 |
| 2011-07-09 | 50km | 5:40:23 h | 8.814 | 3/17 | |
| 2011-10-26 | 18h | 120.708 km | 18laps | 1/18 | |
| 2012-03-31 | 40mi | 21:24:00 h | 3.008 | 1/5 | |
| 2012-04-22 | 50km | 4:19:56 h | 11.541 | 5/67 | |
| 2013-04-27 | 50mi | 8:33:32 h | 9.402 | 16/87 | |
| 2013-10-19 | Big Dog's Backyard UltraUnited States | 35h | 234.710 km | 35laps | 1/26 |
| 2014-03-28 | 100mi | 22:04:00 h | 7.293 | 3/42 | |
| 2014-04-27 | 50km | 4:49:51 h | 10.350 | 11/55 | |
| 2017-03-17 | 24h | 165.762 km | 6.907 | 3/51 | |
| 2017-09-23 | 100mi | 23:12:22 h | 6.935 | 12/81 |
Showing 1–50 of 52